Flight Track Log - Related Links

Times and Time Zones

All times are in EDT time to prevent confusion due to time zone crossing. See the SWA1718 flight status page for this flight to view local times or setup timezone preferences in your user account.

Time Position Orientation Groundspeed Altitude Reporting Facility
EDT Latitude Longitude Course Direction KTS MPH feet Rate Location/Type
Thu 07:18:55 AM 41.8167 -87.7333 282° West 175 201 1,900  Level Chicago TRACON
Thu 07:19:55 AM 41.8167 -87.8167 270° West 233 268 3,500 1,700 Climbing Chicago TRACON
Thu 07:20:55 AM 41.8000 -87.9000 255° West 251 289 5,300 2,600 Climbing Chicago TRACON
Thu 07:21:55 AM 41.7775 -87.9767 249° West 246 283 8,700 3,124 Climbing Chicago Center
Thu 07:22:56 AM 41.7728 -88.0789 266° West 284 327 11,600 1,869 Climbing Chicago Center
Thu 07:23:57 AM 41.7744 -88.1886 271° West 296 341 12,500 1,770 Climbing Chicago Center
Thu 07:24:00 AM 41.8952 -88.4520 282° West  Level FlightAware Approximate
Thu 07:24:58 AM 41.7772 -88.3458 271° West 361 415 15,200  Level Chicago Center
Thu 07:25:59 AM 41.7764 -88.4794 270° West 364 419 18,600 3,639 Climbing Chicago Center
Thu 07:27:00 AM 41.7831 -88.6067 274° West 348 400 22,600 2,902 Climbing Chicago Center
Thu 07:28:01 AM 41.7678 -88.7203 260° West 322 371 24,500 1,770 Climbing Chicago Center
Thu 07:29:02 AM 41.7475 -88.8394 257° West 328 377 26,200 1,623 Climbing Chicago Center
Thu 07:30:03 AM 41.7325 -88.9675 261° West 346 398 27,800 1,672 Climbing Chicago Center
Thu 07:31:04 AM 41.7164 -89.0975 261° West 356 410 29,600 1,574 Climbing Chicago Center
Thu 07:32:05 AM 41.6986 -89.2303 260° West 362 417 31,000 1,525 Climbing Chicago Center
Thu 07:33:06 AM 41.6783 -89.3925 261° West 369 425 32,700 1,672 Climbing Chicago Center
Thu 07:34:07 AM 41.6614 -89.5253 260° West 367 422 34,400 1,561 Climbing Chicago Center
Thu 07:35:09 AM 41.6453 -89.6469 260° West 363 418 35,900 732 Climbing Chicago Center
Thu 07:36:10 AM 41.6286 -89.7742 260° West 353 406 35,900  Level Chicago Center
Thu 07:37:11 AM 41.6106 -89.9044 260° West 357 411 35,900  Level Chicago Center
Thu 07:38:12 AM 41.5931 -90.0358 260° West 360 414 35,900  Level Chicago Center
Thu 07:39:13 AM 41.5761 -90.1656 260° West 357 411 35,900  Level Chicago Center
Thu 07:40:15 AM 41.5533 -90.3264 259° West 369 425 35,900  Level Chicago Center
Thu 07:41:16 AM 41.5336 -90.4575 259° West 364 419 35,900  Level Chicago Center
Thu 07:42:17 AM 41.5192 -90.5850 261° West 351 404 35,900  Level Chicago Center
Thu 07:43:19 AM 41.4972 -90.7228 258° West 376 433 35,900  Level Chicago Center
Thu 07:44:20 AM 41.4781 -90.8564 259° West 369 425 35,900 49 Level Chicago Center
Thu 07:45:21 AM 41.4583 -90.9925 259° West 374 430 36,000 49 Climbing Chicago Center
Thu 07:46:23 AM 41.4381 -91.1331 259° West 384 442 36,000  Level Chicago Center
Thu 07:47:24 AM 41.4164 -91.2744 258° West 389 448 36,000 -49 Level Chicago Center
Thu 07:48:25 AM 41.3944 -91.4225 259° West 386 444 35,900 -49 Descending Chicago Center
Thu 07:49:27 AM 41.3742 -91.5633 259° West 388 447 35,900  Level Chicago Center
Thu 07:50:28 AM 41.3528 -91.7022 258° West 385 443 35,900  Level Chicago Center
Thu 07:51:29 AM 41.3275 -91.8686 259° West 385 443 35,900  Level Chicago Center
Thu 07:52:31 AM 41.3050 -92.0061 258° West 383 441 35,900  Level Chicago Center
Thu 07:53:32 AM 41.2844 -92.1464 259° West 386 444 35,900 49 Level Chicago Center
Thu 07:54:34 AM 41.2619 -92.2878 258° West 391 450 36,000  Climbing Chicago Center
Thu 07:55:35 AM 41.2392 -92.4314 258° West 396 456 35,900 -49 Descending Chicago Center
Thu 07:56:36 AM 41.2150 -92.5750 257° West 401 461 35,900  Level Chicago Center
Thu 07:57:38 AM 41.1919 -92.7183 258° West 401 461 35,900  Level Chicago Center
Thu 07:58:39 AM 41.1644 -92.8922 258° West 405 466 35,900 49 Level Chicago Center
Thu 07:59:41 AM 41.1406 -93.0392 258° West 412 474 36,000  Climbing Chicago Center
Thu 08:00:42 AM 41.1167 -93.1842 258° West 410 472 35,900 -49 Descending Chicago Center
Thu 08:01:44 AM 41.0914 -93.3336 257° West 417 480 35,900 49 Level Chicago Center
Thu 08:02:45 AM 41.0656 -93.4825 257° West 419 482 36,000  Climbing Chicago Center
Thu 08:03:46 AM 41.0386 -93.6328 257° West 422 486 35,900 -49 Descending Chicago Center
Thu 08:04:48 AM 41.0167 -93.7792 259° West 415 478 35,900  Level Chicago Center
Thu 08:05:49 AM 40.9842 -93.9608 257° West 423 487 35,900 49 Level Chicago Center
Thu 08:06:51 AM 40.9583 -94.1106 257° West 424 488 36,000  Climbing Chicago Center
Thu 08:07:52 AM 40.9333 -94.2597 258° West 420 483 35,900  Descending Chicago Center
Thu 08:08:54 AM 40.9056 -94.4089 256° West 420 483 36,000  Climbing Chicago Center
Thu 08:09:58 AM 40.8781 -94.5586 256° West 419 482 35,900 -48 Descending Minneapolis Center
Thu 08:10:59 AM 40.8506 -94.7142 257° West 424 488 35,900  Level Minneapolis Center
Thu 08:11:59 AM 40.8183 -94.8964 257° West 425 489 35,900  Level Minneapolis Center
Thu 08:13:00 AM 40.7894 -95.0486 256° West 426 490 35,900 49 Level Minneapolis Center
Thu 08:14:01 AM 40.7617 -95.2014 257° West 427 491 36,000  Climbing Minneapolis Center
Thu 08:15:02 AM 40.7347 -95.3531 257° West 426 490 35,900 -49 Descending Minneapolis Center
Thu 08:16:03 AM 40.7056 -95.5053 256° West 426 490 35,900  Level Minneapolis Center
Thu 08:17:04 AM 40.6769 -95.6556 256° West 423 487 35,900  Level Minneapolis Center
Thu 08:18:05 AM 40.6486 -95.8069 256° West 423 487 35,900  Level Minneapolis Center
Thu 08:19:06 AM 40.6189 -95.9578 255° West 424 488 35,900  Level Minneapolis Center
Thu 08:20:07 AM 40.5897 -96.1136 256° West 432 497 35,900 49 Level Minneapolis Center
Thu 08:21:08 AM 40.5597 -96.2678 256° West 434 499 36,000  Climbing Minneapolis Center
Thu 08:22:09 AM 40.5294 -96.4219 256° West 433 498 35,900  Descending Minneapolis Center
Thu 08:23:10 AM 40.4986 -96.5761 255° West 434 499 36,000 49 Climbing Minneapolis Center
Thu 08:24:11 AM 40.4686 -96.7289 256° West 433 498 36,000 -49 Level Minneapolis Center
Thu 08:25:12 AM 40.4375 -96.8817 255° West 431 496 35,900 -49 Descending Minneapolis Center
Thu 08:26:13 AM 40.4083 -97.0331 256° West 429 494 35,900  Level Minneapolis Center
Thu 08:27:14 AM 40.3764 -97.1831 254° West 428 493 35,900 49 Level Minneapolis Center
Thu 08:28:15 AM 40.3447 -97.3386 255° West 430 495 36,000 49 Climbing Minneapolis Center
Thu 08:29:16 AM 40.3131 -97.4911 255° West 432 497 36,000  Level Minneapolis Center
Thu 08:30:17 AM 40.2811 -97.6417 255° West 429 494 36,000  Level Minneapolis Center
Thu 08:31:18 AM 40.2497 -97.7939 255° West 431 496 36,000  Level Minneapolis Center
Thu 08:32:19 AM 40.2106 -97.9750 254° West 430 495 36,000  Level Minneapolis Center
Thu 08:33:20 AM 40.1786 -98.1261 255° West 429 494 36,000  Level Minneapolis Center
Thu 08:34:21 AM 40.1458 -98.2789 254° West 433 498 36,000  Level Minneapolis Center
Thu 08:35:22 AM 40.1128 -98.4325 254° West 435 501 36,000  Level Minneapolis Center
Thu 08:36:35 AM 40.0797 -98.5853 254° West 436 502 36,000  Level Minneapolis Center
Thu 08:37:36 AM 40.0392 -98.7689 254° West 436 502 36,000  Level Minneapolis Center
Thu 08:38:37 AM 40.0064 -98.9208 254° West 435 501 36,000  Level Minneapolis Center
Thu 08:39:38 AM 39.9725 -99.0697 254° West 430 495 36,000  Level Minneapolis Center
Thu 08:40:39 AM 39.9397 -99.2214 254° West 432 497 36,000  Level Minneapolis Center
Thu 08:41:40 AM 39.9050 -99.3700 253° West 429 494 36,000  Level Minneapolis Center
Thu 08:42:41 AM 39.8711 -99.5175 253° West 426 490 36,000  Level Minneapolis Center
Thu 08:43:42 AM 39.8375 -99.6669 254° West 428 493 36,000  Level Minneapolis Center
Thu 08:44:44 AM 39.8025 -99.8167 253° West 431 496 36,000  Level Minneapolis Center
Thu 08:45:45 AM 39.7686 -99.9669 254° West 431 496 36,000  Level Minneapolis Center
Thu 08:46:46 AM 39.7350 -100.1167 254° West 431 496 36,000  Level Minneapolis Center
Thu 08:47:47 AM 39.6992 -100.2653 253° West 431 496 36,000  Level Minneapolis Center
Thu 08:48:59 AM 39.6528 -100.4553 252° West 424 488 36,000 -45 Level Denver Center
Thu 08:50:00 AM 39.6200 -100.5942 253° West 420 483 35,900  Descending Denver Center
Thu 08:51:01 AM 39.5819 -100.7553 253° West 419 482 36,000 49 Climbing Denver Center
Thu 08:52:02 AM 39.5486 -100.8931 253° West 420 483 36,000  Level Denver Center
Thu 08:53:02 AM 39.5156 -101.0317 253° West 423 487 36,000  Level Denver Center
Thu 08:54:03 AM 39.4764 -101.1886 252° West 412 474 36,000  Level Denver Center
Thu 08:55:04 AM 39.4433 -101.3192 252° West 402 463 36,000  Level Denver Center
Thu 08:56:05 AM 39.4114 -101.4519 253° West 401 461 36,000  Level Denver Center
Thu 08:57:06 AM 39.3744 -101.6025 252° West 393 452 36,000  Level Denver Center
Thu 08:58:07 AM 39.3439 -101.7336 253° West 396 456 36,000  Level Denver Center
Thu 08:59:07 AM 39.3089 -101.8597 250° West 392 451 36,000  Level Denver Center
Thu 09:00:08 AM 39.2708 -102.0078 252° West 390 449 36,000  Level Denver Center
Thu 09:01:09 AM 39.2397 -102.1358 253° West 390 449 36,000  Level Denver Center
Thu 09:02:10 AM 39.2061 -102.2611 251° West 388 447 36,000  Level Denver Center
Thu 09:03:11 AM 39.1683 -102.4103 252° West 391 450 36,000  Level Denver Center
Thu 09:04:12 AM 39.1356 -102.5364 252° West 391 450 36,000  Level Denver Center
Thu 09:05:13 AM 39.1033 -102.6636 252° West 390 449 36,000  Level Denver Center
Thu 09:06:13 AM 39.0661 -102.8078 252° West 392 451 36,000 -50 Level Denver Center
Thu 09:07:14 AM 39.0311 -102.9400 251° West 388 447 35,900 -49 Descending Denver Center
Thu 09:08:15 AM 38.9958 -103.0728 251° West 387 445 35,900 49 Level Denver Center
Thu 09:09:16 AM 38.9617 -103.2017 251° West 379 436 36,000 49 Climbing Denver Center
Thu 09:10:17 AM 38.9267 -103.3317 251° West 381 438 36,000  Level Denver Center
Thu 09:11:18 AM 38.8917 -103.4619 251° West 382 440 36,000  Level Denver Center
Thu 09:12:19 AM 38.8561 -103.5944 251° West 387 445 36,000  Level Denver Center
Thu 09:13:20 AM 38.8200 -103.7278 251° West 385 443 36,000  Level Denver Center
Thu 09:14:20 AM 38.7869 -103.8492 251° West 380 437 36,000  Level Denver Center
Thu 09:15:21 AM 38.7494 -103.9889 251° West 374 430 36,000  Level Denver Center
Thu 09:16:22 AM 38.7164 -104.1081 250° West 371 427 36,000  Level Denver Center
Thu 09:17:23 AM 38.6817 -104.2342 251° West 375 432 36,000  Level Denver Center
Thu 09:18:24 AM 38.6472 -104.3578 250° West 368 423 36,000  Level Denver Center
Thu 09:19:25 AM 38.6133 -104.4808 251° West 365 420 36,000  Level Denver Center
Thu 09:20:26 AM 38.5783 -104.6039 250° West 365 420 36,000  Level Denver Center
Thu 09:21:26 AM 38.5442 -104.7264 250° West 363 418 36,000  Level Denver Center
Thu 09:22:27 AM 38.5097 -104.8494 250° West 363 418 36,000  Level Denver Center
Thu 09:23:28 AM 38.4750 -104.9725 250° West 364 419 36,000  Level Denver Center
Thu 09:24:29 AM 38.4403 -105.0958 250° West 368 423 36,000  Level Denver Center
Thu 09:25:30 AM 38.4042 -105.2169 249° West 364 419 36,000  Level Denver Center
Thu 09:26:31 AM 38.3694 -105.3392 250° West 363 418 36,000  Level Denver Center
Thu 09:27:32 AM 38.3325 -105.4667 250° West 365 420 36,000  Level Denver Center
Thu 09:28:33 AM 38.2986 -105.5839 250° West 368 423 36,000  Level Denver Center
Thu 09:29:34 AM 38.2589 -105.7206 250° West 368 423 36,000  Level Denver Center
Thu 09:30:34 AM 38.2244 -105.8367 249° West 367 422 36,000  Level Denver Center
Thu 09:31:35 AM 38.1903 -105.9531 250° West 368 423 36,000  Level Denver Center
Thu 09:32:48 AM 38.1500 -106.0906 250° West 372 428 36,000  Level Denver Center
Thu 09:33:50 AM 38.1103 -106.2169 248° West 376 433 36,000  Level Denver Center
Thu 09:34:50 AM 38.0667 -106.3653 250° West 371 427 36,000  Level Denver Center
Thu 09:35:51 AM 38.0311 -106.4850 249° West 378 435 36,000  Level Denver Center
Thu 09:36:52 AM 37.9961 -106.6017 249° West 376 433 36,000  Level Denver Center
Thu 09:37:53 AM 37.9539 -106.7394 249° West 375 432 36,000  Level Denver Center
Thu 09:38:54 AM 37.9181 -106.8581 249° West 378 435 36,000  Level Denver Center
Thu 09:39:55 AM 37.8817 -106.9736 248° West 371 427 36,000  Level Denver Center
Thu 09:40:56 AM 37.8406 -107.1078 249° West 368 423 36,000  Level Denver Center
Thu 09:42:09 AM 37.8078 -107.2161 249° West 368 423 36,000  Level Denver Center
Thu 09:44:12 AM 37.7258 -107.4822 249° West 363 418 36,000  Level Denver Center
Thu 09:45:13 AM 37.6836 -107.6144 248° West 362 417 36,000  Level Denver Center
Thu 09:46:14 AM 37.6481 -107.7294 249° West 367 422 36,000  Level Denver Center
Thu 09:47:15 AM 37.6064 -107.8614 248° West 365 420 36,000  Level Denver Center
Thu 09:48:16 AM 37.5700 -107.9769 248° West 370 426 36,000  Level Denver Center
Thu 09:49:17 AM 37.5347 -108.0917 249° West 368 423 36,000  Level Denver Center
Thu 09:50:18 AM 37.4914 -108.2244 248° West 369 425 36,000  Level Denver Center
Thu 09:51:19 AM 37.4542 -108.3386 248° West 369 425 36,000  Level Denver Center
Thu 09:52:21 AM 37.4169 -108.4514 247° West 365 420 36,000  Level Denver Center
Thu 09:53:22 AM 37.3744 -108.5853 248° West 370 426 36,000  Level Denver Center
Thu 09:54:23 AM 37.3372 -108.7000 248° West 370 426 36,000  Level Denver Center
Thu 09:55:24 AM 37.2931 -108.8336 247° West 372 428 36,000  Level Denver Center
Thu 09:56:25 AM 37.2550 -108.9481 247° West 371 427 36,000  Level Denver Center
Thu 09:57:27 AM 37.2175 -109.0639 248° West 374 430 36,000  Level Denver Center
Thu 09:58:28 AM 37.1725 -109.1997 247° West 378 435 36,000  Level Denver Center
Thu 09:59:29 AM 37.1350 -109.3142 248° West 374 430 36,000  Level Denver Center
Thu 10:00:31 AM 37.0900 -109.4486 247° West 376 433 36,000  Level Denver Center
Thu 10:01:32 AM 37.0511 -109.5625 247° West 374 430 36,000  Level Denver Center
Thu 10:02:33 AM 37.0131 -109.6789 248° West 376 433 36,000  Level Denver Center
Thu 10:03:34 AM 36.9675 -109.8133 247° West 377 434 36,000  Level Denver Center
Thu 10:04:36 AM 36.9283 -109.9275 247° West 376 433 36,000  Level Denver Center
Thu 10:05:37 AM 36.8828 -110.0625 247° West 378 435 36,000  Level Denver Center
Thu 10:06:38 AM 36.8414 -110.1822 247° West 379 436 36,000  Level Denver Center
Thu 10:07:40 AM 36.8006 -110.3022 247° West 377 434 36,000  Level Denver Center
Thu 10:08:41 AM 36.7586 -110.4217 246° West 376 433 36,000  Level Denver Center
Thu 10:09:43 AM 36.7186 -110.5417 247° West 375 432 36,000  Level Denver Center
Thu 10:10:44 AM 36.6789 -110.6592 247° West 372 428 36,000  Level Denver Center
Thu 10:11:45 AM 36.6369 -110.7786 246° West 374 430 36,000  Level Denver Center
Thu 10:12:47 AM 36.5950 -110.8989 247° West 377 434 36,000  Level Denver Center
Thu 10:13:48 AM 36.5436 -111.0406 246° West 375 432 36,000  Level Denver Center
Thu 10:14:50 AM 36.5017 -111.1592 246° West 376 433 36,000  Level Denver Center
Thu 10:15:51 AM 36.4594 -111.2772 246° West 375 432 36,000  Level Denver Center
Thu 10:16:53 AM 36.4153 -111.3956 245° Southwest 376 433 36,000  Level Denver Center
Thu 10:17:55 AM 36.3708 -111.5150 245° Southwest 379 436 36,000  Level Denver Center
Thu 10:18:56 AM 36.3272 -111.6328 245° Southwest 378 435 36,000  Level Denver Center
Thu 10:19:58 AM 36.2828 -111.7514 245° Southwest 378 435 36,000  Level Denver Center
Thu 10:20:59 AM 36.2392 -111.8697 245° Southwest 378 435 36,000  Level Denver Center
Thu 10:21:22 AM 36.2214 -111.9153 244° Southwest 375 432 36,000  Level Los Angeles Center
Thu 10:22:23 AM 36.1767 -112.0319 245° Southwest 378 435 36,000  Level Los Angeles Center
Thu 10:23:25 AM 36.1233 -112.1744 245° Southwest 383 441 36,000  Level Los Angeles Center
Thu 10:24:27 AM 36.0783 -112.2925 245° Southwest 372 428 36,000  Level Los Angeles Center
Thu 10:25:29 AM 36.0350 -112.4067 245° Southwest 366 421 36,000  Level Los Angeles Center
Thu 10:26:30 AM 35.9886 -112.5258 244° Southwest 382 440 36,000  Level Los Angeles Center
Thu 10:27:32 AM 35.9461 -112.6369 245° Southwest 381 438 36,000  Level Los Angeles Center
Thu 10:28:34 AM 35.9022 -112.7528 245° Southwest 378 435 36,000  Level Los Angeles Center
Thu 10:29:36 AM 35.8483 -112.8911 244° Southwest 377 434 36,000  Level Los Angeles Center
Thu 10:30:38 AM 35.8036 -113.0078 245° Southwest 381 438 36,000  Level Los Angeles Center
Thu 10:31:39 AM 35.7583 -113.1239 244° Southwest 381 438 36,000  Level Los Angeles Center
Thu 10:32:41 AM 35.7131 -113.2414 245° Southwest 385 443 36,000  Level Los Angeles Center
Thu 10:33:43 AM 35.6675 -113.3583 244° Southwest 384 442 36,000  Level Los Angeles Center
Thu 10:34:45 AM 35.6117 -113.5000 244° Southwest 386 444 36,000  Level Los Angeles Center
Thu 10:35:46 AM 35.5656 -113.6172 244° Southwest 386 444 36,000  Level Los Angeles Center
Thu 10:36:48 AM 35.5189 -113.7350 244° Southwest 386 444 36,000  Level Los Angeles Center
Thu 10:37:50 AM 35.4722 -113.8519 244° Southwest 384 442 36,000  Level Los Angeles Center
Thu 10:38:52 AM 35.4178 -113.9872 244° Southwest 383 441 36,000  Level Los Angeles Center
Thu 10:39:53 AM 35.3697 -114.1056 244° Southwest 385 443 36,000  Level Los Angeles Center
Thu 10:40:55 AM 35.3222 -114.2247 244° Southwest 388 447 36,000  Level Los Angeles Center
Thu 10:41:57 AM 35.2750 -114.3431 244° Southwest 386 444 36,000  Level Los Angeles Center
Thu 10:42:59 AM 35.2269 -114.4611 244° Southwest 386 444 36,000  Level Los Angeles Center
Thu 10:44:01 AM 35.1792 -114.5789 244° Southwest 386 444 36,000  Level Los Angeles Center
Thu 10:45:14 AM 35.1308 -114.6992 244° Southwest 390 449 36,000  Level Los Angeles Center
Thu 10:46:17 AM 35.0617 -114.8639 243° Southwest 389 448 36,000  Level Los Angeles Center
Thu 10:47:18 AM 35.0131 -114.9828 243° Southwest 390 449 36,000  Level Los Angeles Center
Thu 10:48:20 AM 34.9631 -115.1050 244° Southwest 394 453 36,000  Level Los Angeles Center
Thu 10:49:22 AM 34.9136 -115.2242 243° Southwest 394 453 36,000  Level Los Angeles Center
Thu 10:50:24 AM 34.8650 -115.3408 243° Southwest 391 450 36,000  Level Los Angeles Center
Thu 10:51:26 AM 34.8147 -115.4586 243° Southwest 389 448 36,000  Level Los Angeles Center
Thu 10:52:27 AM 34.7661 -115.5750 243° Southwest 392 451 36,000  Level Los Angeles Center
Thu 10:53:29 AM 34.7047 -115.7175 242° Southwest 395 455 36,000  Level Los Angeles Center
Thu 10:54:31 AM 34.6550 -115.8361 243° Southwest 396 456 36,000  Level Los Angeles Center
Thu 10:55:33 AM 34.6047 -115.9550 243° Southwest 396 456 36,000  Level Los Angeles Center
Thu 10:56:35 AM 34.5542 -116.0739 243° Southwest 396 456 36,000  Level Los Angeles Center
Thu 10:57:37 AM 34.5039 -116.1936 243° Southwest 397 457 36,000  Level Los Angeles Center
Thu 10:58:38 AM 34.4550 -116.3103 243° Southwest 393 452 36,000 -1,024 Level Los Angeles Center
Thu 10:59:40 AM 34.4039 -116.4294 243° Southwest 396 456 33,900 -2,903 Descending Los Angeles Center
Thu 11:00:42 AM 34.3422 -116.5717 242° Southwest 397 457 30,000 -3,290 Descending Los Angeles Center
Thu 11:01:44 AM 34.2897 -116.6917 242° Southwest 401 461 27,100 -2,613 Descending Los Angeles Center
Thu 11:02:46 AM 34.2383 -116.8103 242° Southwest 400 460 24,600 -2,371 Descending Los Angeles Center
Thu 11:03:48 AM 34.1883 -116.9239 242° Southwest 390 449 22,200 -2,274 Descending Los Angeles Center
Thu 11:04:50 AM 34.1406 -117.0331 242° Southwest 377 434 19,900 -1,846 Descending Los Angeles Center
Thu 11:05:32 AM 34.1000 -117.1167 240° Southwest 345 397 19,000 -1,778 Descending Southern California TRACON
Thu 11:06:38 AM 34.0500 -117.2333 243° Southwest 350 403 16,700 -1,800 Descending Southern California TRACON
Thu 11:07:32 AM 34.0333 -117.3333 259° West 325 374 15,400 -1,722 Descending Southern California TRACON
Thu 11:08:33 AM 34.0333 -117.4333 270° West 313 360 13,400 -1,930 Descending Southern California TRACON
Thu 11:09:27 AM 34.0333 -117.5333 270° West 292 336 11,700 -1,579 Descending Southern California TRACON
Thu 11:10:27 AM 34.0333 -117.6333 270° West 298 343 10,400 -1,000 Descending Southern California TRACON
Thu 11:11:27 AM 34.0167 -117.7167 256° West 267 307 9,700 -947 Descending Southern California TRACON
Thu 11:12:21 AM 34.0167 -117.8000 270° West 260 299 8,600 -1,211 Descending Southern California TRACON
Thu 11:13:21 AM 34.0000 -117.8833 256° West 256 295 7,400 -1,105 Descending Southern California TRACON
Thu 11:14:15 AM 34.0000 -117.9667 270° West 244 281 6,500 -947 Descending Southern California TRACON
Thu 11:15:15 AM 33.9833 -118.0500 256° West 246 283 5,600 -900 Descending Southern California TRACON
Thu 11:16:15 AM 33.9833 -118.1167 270° West 238 274 4,700 -1,109 Descending Southern California TRACON
Thu 11:17:14 AM 33.9728 -118.1969 261° West 219 252 3,400 -1,140 Descending Los Angeles Center
Thu 11:18:16 AM 33.9667 -118.2625 264° West 206 237 2,400 -968 Descending Los Angeles Center
Thu 11:19:18 AM 33.9606 -118.3236 263° West 179 206 1,400 -871 Descending Los Angeles Center
Thu 11:20:20 AM 33.9556 -118.3719 263° West 152 175 600 -774 Descending Los Angeles Center
Thu 11:23:00 AM 33.9333 -118.4000 259° West  Level FlightAware Approximate

Login

Don't have an account? Register now (free) for customized features, flight alerts, and more!